Time,TemperatureF,DewpointF,PressureIn,WindDirection,WindDirectionDegrees,WindSpeedMPH,WindSpeedGustMPH,Humidity,HourlyPrecipIn,Conditions,Clouds,dailyrainin,SoftwareType,DateUTC
2013-04-08 00:00:00,30.6,27.2,30.03,East,99,1.0,3.0,87,0.00,,---,0.23,VWS V14.01,2013-04-08 04:00:00,
2013-04-08 00:06:00,30.6,27.2,30.03,East,99,1.0,1.0,87,0.00,,---,0.00,VWS V14.01,2013-04-08 04:06:00,
2013-04-08 00:11:00,30.5,27.1,30.02,ESE,102,4.0,4.0,87,0.00,,---,0.00,VWS V14.01,2013-04-08 04:11:00,
2013-04-08 00:17:00,30.5,27.1,30.03,ESE,105,2.0,3.0,87,0.00,,---,0.00,VWS V14.01,2013-04-08 04:17:00,
2013-04-08 00:22:00,30.4,27.0,30.03,ESE,105,1.0,1.0,87,0.00,,---,0.00,VWS V14.01,2013-04-08 04:22:00,
2013-04-08 00:26:00,30.2,26.8,30.02,East,96,2.0,3.0,87,0.00,,---,0.00,VWS V14.01,2013-04-08 04:26:00,
2013-04-08 00:32:00,30.2,26.8,30.03,East,96,0.0,0.0,87,0.00,,---,0.00,VWS V14.01,2013-04-08 04:32:00,
2013-04-08 00:37:00,30.1,26.7,30.01,East,98,4.0,4.0,87,0.00,,---,0.00,VWS V14.01,2013-04-08 04:37:00,
2013-04-08 00:42:00,30.0,26.6,30.01,ESE,105,3.0,4.0,87,0.00,,---,0.00,VWS V14.01,2013-04-08 04:42:00,
2013-04-08 00:47:00,29.8,26.7,30.01,ESE,109,3.0,5.0,88,0.00,,---,0.00,VWS V14.01,2013-04-08 04:47:00,
2013-04-08 00:52:00,29.7,26.6,30.01,ESE,104,3.0,4.0,88,0.00,,---,0.00,VWS V14.01,2013-04-08 04:52:00,
2013-04-08 00:57:00,29.8,26.7,30.00,East,96,3.0,3.0,88,0.00,,---,0.00,VWS V14.01,2013-04-08 04:57:00,
2013-04-08 01:02:00,29.9,26.8,30.01,East,98,4.0,4.0,88,0.00,,---,0.00,VWS V14.01,2013-04-08 05:02:00,
2013-04-08 01:07:00,29.8,26.7,30.01,ESE,108,3.0,3.0,88,0.00,,---,0.00,VWS V14.01,2013-04-08 05:07:00,
2013-04-08 01:12:00,29.8,26.7,30.00,ESE,107,3.0,4.0,88,0.00,,---,0.00,VWS V14.01,2013-04-08 05:12:00,
2013-04-08 01:17:00,29.7,26.6,30.00,ESE,107,3.0,4.0,88,0.00,,---,0.00,VWS V14.01,2013-04-08 05:17:00,
2013-04-08 01:22:00,29.6,26.5,30.00,ESE,105,3.0,3.0,88,0.00,,---,0.00,VWS V14.01,2013-04-08 05:22:00,
2013-04-08 01:27:00,29.5,26.4,30.00,ESE,109,0.0,3.0,88,0.00,,---,0.00,VWS V14.01,2013-04-08 05:27:00,
2013-04-08 01:32:00,29.5,26.4,30.01,ESE,109,0.0,1.0,88,0.00,,---,0.00,VWS V14.01,2013-04-08 05:32:00,
2013-04-08 01:37:00,29.4,26.3,30.01,SE,130,0.0,2.0,88,0.00,,---,0.00,VWS V14.01,2013-04-08 05:37:00,
2013-04-08 01:42:00,29.3,26.2,30.02,SE,138,2.0,2.0,88,0.00,,---,0.00,VWS V14.01,2013-04-08 05:42:00,
2013-04-08 01:47:00,29.2,26.1,30.02,SSE,147,1.0,3.0,88,0.00,,---,0.00,VWS V14.01,2013-04-08 05:47:00,
2013-04-08 01:52:00,29.0,26.2,30.02,SSE,147,3.0,3.0,89,0.00,,---,0.00,VWS V14.01,2013-04-08 05:52:00,
2013-04-08 01:57:00,28.9,26.1,30.02,SE,146,0.0,0.0,89,0.00,,---,0.00,VWS V14.01,2013-04-08 05:57:00,
2013-04-08 02:02:00,28.8,26.0,30.01,SSE,147,0.0,2.0,89,0.00,,---,0.00,VWS V14.01,2013-04-08 06:02:00,
2013-04-08 02:07:00,28.8,26.0,30.01,SSE,147,0.0,0.0,89,0.00,,---,0.00,VWS V14.01,2013-04-08 06:07:00,
2013-04-08 02:12:00,28.8,26.0,30.01,ESE,105,0.0,1.0,89,0.00,,---,0.00,VWS V14.01,2013-04-08 06:12:00,
2013-04-08 02:17:00,28.8,26.0,30.00,ESE,113,2.0,4.0,89,0.00,,---,0.00,VWS V14.01,2013-04-08 06:17:00,
2013-04-08 02:22:00,28.9,26.1,30.00,ESE,109,5.0,5.0,89,0.00,,---,0.00,VWS V14.01,2013-04-08 06:22:00,
2013-04-08 02:27:00,28.9,26.1,29.99,East,92,3.0,5.0,89,0.00,,---,0.00,VWS V14.01,2013-04-08 06:27:00,
2013-04-08 02:32:00,29.0,26.2,29.99,East,98,4.0,5.0,89,0.00,,---,0.00,VWS V14.01,2013-04-08 06:32:00,
2013-04-08 02:37:00,29.0,26.2,29.99,East,89,3.0,4.0,89,0.00,,---,0.00,VWS V14.01,2013-04-08 06:37:00,
2013-04-08 02:42:00,28.8,26.0,29.98,East,92,4.0,5.0,89,0.00,,---,0.00,VWS V14.01,2013-04-08 06:42:00,
2013-04-08 02:47:00,28.6,25.8,29.98,ESE,103,5.0,5.0,89,0.00,,---,0.00,VWS V14.01,2013-04-08 06:47:00,
2013-04-08 02:52:00,28.4,25.6,29.99,ESE,102,4.0,4.0,89,0.00,,---,0.00,VWS V14.01,2013-04-08 06:52:00,
2013-04-08 02:57:00,28.5,26.0,29.99,ESE,109,0.0,3.0,90,0.00,,---,0.00,VWS V14.01,2013-04-08 06:57:00,
2013-04-08 03:02:00,28.5,26.0,29.99,ESE,109,0.0,0.0,90,0.00,,---,0.00,VWS V14.01,2013-04-08 07:02:00,
2013-04-08 03:07:00,28.5,26.0,29.98,ESE,114,2.0,5.0,90,0.00,,---,0.00,VWS V14.01,2013-04-08 07:07:00,
2013-04-08 03:13:00,28.6,26.0,29.99,ESE,113,0.0,2.0,90,0.00,,---,0.00,VWS V14.01,2013-04-08 07:13:00,
2013-04-08 03:18:00,28.7,26.1,29.99,SE,134,0.0,3.0,90,0.00,,---,0.00,VWS V14.01,2013-04-08 07:18:00,
2013-04-08 03:23:00,28.6,26.0,29.98,ESE,110,3.0,4.0,90,0.00,,---,0.00,VWS V14.01,2013-04-08 07:23:00,
2013-04-08 03:28:00,28.6,26.0,29.98,East,95,2.0,4.0,90,0.00,,---,0.00,VWS V14.01,2013-04-08 07:28:00,
2013-04-08 03:33:00,28.7,26.1,29.98,ESE,103,3.0,5.0,90,0.00,,---,0.00,VWS V14.01,2013-04-08 07:33:00,
2013-04-08 03:38:00,28.7,26.1,29.98,ESE,103,0.0,3.0,90,0.00,,---,0.00,VWS V14.01,2013-04-08 07:38:00,
2013-04-08 03:43:00,28.5,26.0,29.98,ESE,103,3.0,3.0,90,0.00,,---,0.00,VWS V14.01,2013-04-08 07:43:00,
2013-04-08 03:48:00,28.5,26.0,29.98,ESE,103,2.0,3.0,90,0.00,,---,0.00,VWS V14.01,2013-04-08 07:48:00,
2013-04-08 03:53:00,28.4,25.9,29.98,ESE,103,0.0,2.0,90,0.00,,---,0.00,VWS V14.01,2013-04-08 07:53:00,
2013-04-08 03:58:00,28.3,25.8,29.99,ESE,103,0.0,2.0,90,0.00,,---,0.00,VWS V14.01,2013-04-08 07:58:00,
2013-04-08 04:03:00,28.2,25.6,29.99,ESE,107,2.0,4.0,90,0.00,,---,0.00,VWS V14.01,2013-04-08 08:03:00,
2013-04-08 04:08:00,28.2,25.6,29.98,East,98,4.0,4.0,90,0.00,,---,0.00,VWS V14.01,2013-04-08 08:08:00,
2013-04-08 04:13:00,28.2,25.6,29.98,East,94,4.0,5.0,90,0.00,,---,0.00,VWS V14.01,2013-04-08 08:13:00,
2013-04-08 04:18:00,28.3,25.8,29.97,East,86,6.0,6.0,90,0.00,,---,0.00,VWS V14.01,2013-04-08 08:18:00,
2013-04-08 04:23:00,28.3,25.8,29.97,East,86,5.0,6.0,90,0.00,,---,0.00,VWS V14.01,2013-04-08 08:23:00,
2013-04-08 04:28:00,28.4,25.9,29.97,East,87,5.0,6.0,90,0.00,,---,0.00,VWS V14.01,2013-04-08 08:28:00,
2013-04-08 04:33:00,28.5,26.0,29.97,East,86,5.0,6.0,90,0.00,,---,0.00,VWS V14.01,2013-04-08 08:33:00,
2013-04-08 04:38:00,28.5,26.0,29.97,East,90,3.0,5.0,90,0.00,,---,0.00,VWS V14.01,2013-04-08 08:38:00,
2013-04-08 04:43:00,28.3,25.8,29.97,East,90,2.0,4.0,90,0.00,,---,0.00,VWS V14.01,2013-04-08 08:43:00,
2013-04-08 04:48:00,28.2,25.6,29.97,ESE,103,4.0,6.0,90,0.00,,---,0.00,VWS V14.01,2013-04-08 08:48:00,
2013-04-08 04:53:00,28.2,25.6,29.97,ESE,105,3.0,6.0,90,0.00,,---,0.00,VWS V14.01,2013-04-08 08:53:00,
2013-04-08 04:58:00,28.1,25.5,29.97,ESE,107,4.0,5.0,90,0.00,,---,0.00,VWS V14.01,2013-04-08 08:58:00,
2013-04-08 05:03:00,28.2,25.6,29.97,ESE,103,5.0,6.0,90,0.00,,---,0.00,VWS V14.01,2013-04-08 09:03:00,
2013-04-08 05:08:00,28.3,25.8,29.97,ESE,113,3.0,6.0,90,0.00,,---,0.00,VWS V14.01,2013-04-08 09:08:00,
2013-04-08 05:13:00,28.4,25.9,29.97,ESE,110,6.0,6.0,90,0.00,,---,0.00,VWS V14.01,2013-04-08 09:13:00,
2013-04-08 05:18:00,28.6,26.0,29.96,ESE,115,4.0,5.0,90,0.00,,---,0.00,VWS V14.01,2013-04-08 09:18:00,
2013-04-08 05:23:00,28.7,26.1,29.96,ESE,109,1.0,3.0,90,0.00,,---,0.00,VWS V14.01,2013-04-08 09:23:00,
2013-04-08 05:28:00,28.7,26.1,29.97,ESE,105,0.0,3.0,90,0.00,,---,0.00,VWS V14.01,2013-04-08 09:28:00,
2013-04-08 05:33:00,28.7,26.1,29.97,ESE,114,1.0,3.0,90,0.00,,---,0.00,VWS V14.01,2013-04-08 09:33:00,
2013-04-08 05:39:00,28.6,25.8,29.97,ESE,115,2.0,3.0,89,0.00,,---,0.00,VWS V14.01,2013-04-08 09:39:00,
2013-04-08 05:44:00,28.4,25.6,29.97,ESE,115,0.0,3.0,89,0.00,,---,0.00,VWS V14.01,2013-04-08 09:44:00,
2013-04-08 05:49:00,28.3,25.8,29.98,ESE,115,1.0,2.0,90,0.00,,---,0.00,VWS V14.01,2013-04-08 09:49:00,
2013-04-08 05:54:00,28.4,25.9,29.97,ESE,115,3.0,3.0,90,0.00,,---,0.00,VWS V14.01,2013-04-08 09:54:00,
2013-04-08 05:59:00,28.5,26.0,29.97,ESE,105,4.0,4.0,90,0.00,,---,0.00,VWS V14.01,2013-04-08 09:59:00,
2013-04-08 06:04:00,28.6,26.0,29.96,East,88,5.0,5.0,90,0.00,,---,0.00,VWS V14.01,2013-04-08 10:04:00,
2013-04-08 06:09:00,28.3,25.8,29.96,East,87,4.0,5.0,90,0.00,,---,0.00,VWS V14.01,2013-04-08 10:09:00,
2013-04-08 06:14:00,28.3,25.8,29.96,East,94,3.0,5.0,90,0.00,,---,0.00,VWS V14.01,2013-04-08 10:14:00,
2013-04-08 06:19:00,28.4,25.9,29.96,East,98,3.0,5.0,90,0.00,,---,0.00,VWS V14.01,2013-04-08 10:19:00,
2013-04-08 06:25:00,28.5,26.0,29.96,East,91,4.0,4.0,90,0.00,,---,0.00,VWS V14.01,2013-04-08 10:25:00,
2013-04-08 06:30:00,28.6,26.0,29.96,ENE,76,3.0,5.0,90,0.00,,---,0.00,VWS V14.01,2013-04-08 10:30:00,
2013-04-08 06:35:00,28.7,26.1,29.96,ENE,78,4.0,5.0,90,0.00,,---,0.00,VWS V14.01,2013-04-08 10:35:00,
2013-04-08 06:40:00,28.8,26.2,29.96,East,91,4.0,4.0,90,0.00,,---,0.00,VWS V14.01,2013-04-08 10:40:00,
2013-04-08 06:45:00,28.9,26.3,29.96,East,90,2.0,4.0,90,0.00,,---,0.00,VWS V14.01,2013-04-08 10:45:00,
2013-04-08 06:50:00,29.0,26.4,29.96,East,89,3.0,4.0,90,0.00,,---,0.00,VWS V14.01,2013-04-08 10:50:00,
2013-04-08 06:55:00,29.0,26.4,29.96,East,84,4.0,5.0,90,0.00,,---,0.00,VWS V14.01,2013-04-08 10:55:00,
2013-04-08 07:00:00,29.1,26.5,29.96,East,94,4.0,6.0,90,0.00,,---,0.00,VWS V14.01,2013-04-08 11:00:00,
2013-04-08 07:05:00,29.1,26.3,29.96,East,92,4.0,5.0,89,0.00,,---,0.00,VWS V14.01,2013-04-08 11:05:00,
2013-04-08 07:10:00,29.3,26.7,29.95,East,84,6.0,7.0,90,0.00,,---,0.00,VWS V14.01,2013-04-08 11:10:00,
2013-04-08 07:15:00,29.4,26.6,29.95,East,86,6.0,7.0,89,0.00,,---,0.00,VWS V14.01,2013-04-08 11:15:00,
2013-04-08 07:20:00,29.6,26.8,29.95,East,87,7.0,7.0,89,0.00,,---,0.00,VWS V14.01,2013-04-08 11:20:00,
2013-04-08 07:25:00,29.8,27.0,29.95,East,86,6.0,9.0,89,0.00,,---,0.00,VWS V14.01,2013-04-08 11:25:00,
2013-04-08 07:30:00,30.0,27.2,29.94,East,89,7.0,9.0,89,0.00,,---,0.00,VWS V14.01,2013-04-08 11:30:00,
2013-04-08 07:35:00,30.2,27.4,29.94,East,93,7.0,9.0,89,0.00,,---,0.00,VWS V14.01,2013-04-08 11:35:00,
2013-04-08 07:40:00,30.5,27.6,29.95,East,86,7.0,9.0,89,0.00,,---,0.00,VWS V14.01,2013-04-08 11:40:00,
2013-04-08 07:45:00,30.6,27.5,29.95,East,87,5.0,7.0,88,0.00,,---,0.00,VWS V14.01,2013-04-08 11:45:00,
2013-04-08 07:50:00,30.7,27.6,29.95,East,98,5.0,6.0,88,0.00,,---,0.00,VWS V14.01,2013-04-08 11:50:00,
2013-04-08 07:55:00,30.9,27.8,29.95,East,96,4.0,6.0,88,0.00,,---,0.00,VWS V14.01,2013-04-08 11:55:00,
2013-04-08 08:00:00,31.1,28.0,29.95,East,93,3.0,3.0,88,0.00,,---,0.00,VWS V14.01,2013-04-08 12:00:00,
2013-04-08 08:05:00,31.3,28.2,29.95,ENE,78,2.0,4.0,88,0.00,,---,0.00,VWS V14.01,2013-04-08 12:05:00,
2013-04-08 08:10:00,31.5,28.1,29.95,East,97,2.0,2.0,87,0.00,,---,0.00,VWS V14.01,2013-04-08 12:10:00,
2013-04-08 08:15:00,31.7,28.3,29.95,East,84,3.0,4.0,87,0.00,,---,0.00,VWS V14.01,2013-04-08 12:15:00,
2013-04-08 08:20:00,32.0,28.6,29.96,ESE,111,5.0,6.0,87,0.00,,---,0.00,VWS V14.01,2013-04-08 12:20:00,
2013-04-08 08:25:00,32.2,28.8,29.96,East,97,3.0,4.0,87,0.00,,---,0.00,VWS V14.01,2013-04-08 12:25:00,
2013-04-08 08:30:00,32.4,28.7,29.96,ESE,111,3.0,3.0,86,0.00,,---,0.00,VWS V14.01,2013-04-08 12:30:00,
2013-04-08 08:35:00,32.6,28.9,29.95,East,96,4.0,4.0,86,0.00,,---,0.00,VWS V14.01,2013-04-08 12:35:00,
2013-04-08 08:41:00,32.6,28.9,29.95,East,82,6.0,7.0,86,0.00,,---,0.00,VWS V14.01,2013-04-08 12:41:00,
2013-04-08 08:46:00,32.6,28.9,29.95,East,86,5.0,5.0,86,0.00,,---,0.00,VWS V14.01,2013-04-08 12:46:00,
2013-04-08 08:51:00,32.5,28.8,29.94,East,88,5.0,6.0,86,0.00,,---,0.00,VWS V14.01,2013-04-08 12:51:00,
2013-04-08 08:56:00,32.5,28.8,29.94,ENE,71,6.0,8.0,86,0.00,,---,0.00,VWS V14.01,2013-04-08 12:56:00,
2013-04-08 09:01:00,32.5,29.1,29.94,East,87,4.0,6.0,87,0.00,,---,0.00,VWS V14.01,2013-04-08 13:01:00,
2013-04-08 09:06:00,32.7,29.3,29.93,East,79,6.0,9.0,87,0.00,,---,0.00,VWS V14.01,2013-04-08 13:06:00,
2013-04-08 09:12:00,32.8,29.4,29.93,East,86,7.0,10.0,87,0.00,,---,0.00,VWS V14.01,2013-04-08 13:12:00,
2013-04-08 09:17:00,33.0,29.6,29.92,East,96,7.0,10.0,87,0.00,,---,0.00,VWS V14.01,2013-04-08 13:17:00,
2013-04-08 09:22:00,33.3,29.9,29.92,East,98,7.0,10.0,87,0.00,,---,0.00,VWS V14.01,2013-04-08 13:22:00,
2013-04-08 09:27:00,33.5,29.8,29.91,East,92,6.0,8.0,86,0.00,,---,0.00,VWS V14.01,2013-04-08 13:27:00,
2013-04-08 09:32:00,33.8,30.1,29.91,East,88,8.0,11.0,86,0.00,,---,0.00,VWS V14.01,2013-04-08 13:32:00,
2013-04-08 09:37:00,33.9,30.2,29.90,East,93,6.0,13.0,86,0.00,,---,0.00,VWS V14.01,2013-04-08 13:37:00,
2013-04-08 09:42:00,34.1,30.1,29.90,East,84,11.0,12.0,85,0.00,,---,0.00,VWS V14.01,2013-04-08 13:42:00,
2013-04-08 09:47:00,34.2,30.5,29.90,East,90,11.0,12.0,86,0.00,,---,0.00,VWS V14.01,2013-04-08 13:47:00,
2013-04-08 09:52:00,34.4,30.4,29.90,East,95,9.0,11.0,85,0.00,,---,0.00,VWS V14.01,2013-04-08 13:52:00,
2013-04-08 09:57:00,34.6,30.6,29.90,ESE,105,9.0,9.0,85,0.00,,---,0.00,VWS V14.01,2013-04-08 13:57:00,
2013-04-08 10:02:00,35.0,31.0,29.90,ENE,76,7.0,12.0,85,0.00,,---,0.00,VWS V14.01,2013-04-08 14:02:00,
2013-04-08 10:07:00,35.3,31.0,29.89,East,88,6.0,8.0,84,0.00,,---,0.00,VWS V14.01,2013-04-08 14:07:00,
2013-04-08 10:12:00,35.5,31.1,29.89,East,83,8.0,8.0,84,0.00,,---,0.00,VWS V14.01,2013-04-08 14:12:00,
2013-04-08 10:17:00,35.7,31.4,29.88,East,94,5.0,11.0,84,0.00,,---,0.00,VWS V14.01,2013-04-08 14:17:00,
2013-04-08 10:22:00,36.0,31.6,29.88,East,96,9.0,9.0,84,0.00,,---,0.00,VWS V14.01,2013-04-08 14:22:00,
2013-04-08 10:27:00,36.2,31.5,29.88,East,90,10.0,11.0,83,0.00,,---,0.00,VWS V14.01,2013-04-08 14:27:00,
2013-04-08 10:32:00,36.5,31.8,29.88,ENE,76,4.0,11.0,83,0.00,,---,0.00,VWS V14.01,2013-04-08 14:32:00,
2013-04-08 10:37:00,36.7,32.0,29.88,ENE,78,6.0,10.0,83,0.00,,---,0.00,VWS V14.01,2013-04-08 14:37:00,
2013-04-08 10:42:00,36.9,31.9,29.88,ESE,117,6.0,10.0,82,0.00,,---,0.00,VWS V14.01,2013-04-08 14:42:00,
2013-04-08 10:47:00,37.2,32.2,29.88,ESE,111,10.0,11.0,82,0.00,,---,0.00,VWS V14.01,2013-04-08 14:47:00,
2013-04-08 10:52:00,37.5,32.5,29.87,East,94,7.0,12.0,82,0.00,,---,0.00,VWS V14.01,2013-04-08 14:52:00,
2013-04-08 10:57:00,37.7,32.4,29.86,ESE,109,9.0,13.0,81,0.00,,---,0.00,VWS V14.01,2013-04-08 14:57:00,
2013-04-08 11:02:00,37.8,32.5,29.86,ESE,113,12.0,16.0,81,0.00,,---,0.00,VWS V14.01,2013-04-08 15:02:00,
2013-04-08 11:07:00,38.0,32.7,29.86,East,98,13.0,13.0,81,0.00,,---,0.00,VWS V14.01,2013-04-08 15:07:00,
2013-04-08 11:12:00,38.1,32.5,29.86,East,84,11.0,16.0,80,0.00,,---,0.00,VWS V14.01,2013-04-08 15:12:00,
2013-04-08 11:17:00,38.2,32.6,29.86,East,92,11.0,12.0,80,0.00,,---,0.00,VWS V14.01,2013-04-08 15:17:00,
2013-04-08 11:22:00,38.5,32.9,29.86,ENE,78,9.0,10.0,80,0.00,,---,0.00,VWS V14.01,2013-04-08 15:22:00,
2013-04-08 11:27:00,38.4,32.8,29.85,East,89,13.0,14.0,80,0.00,,---,0.00,VWS V14.01,2013-04-08 15:27:00,
2013-04-08 11:32:00,38.1,32.5,29.85,East,94,7.0,15.0,80,0.00,,---,0.00,VWS V14.01,2013-04-08 15:32:00,
2013-04-08 11:37:00,38.1,32.5,29.85,ENE,78,15.0,15.0,80,0.00,,---,0.00,VWS V14.01,2013-04-08 15:37:00,
2013-04-08 11:42:00,38.2,32.6,29.84,ENE,75,10.0,13.0,80,0.00,,---,0.00,VWS V14.01,2013-04-08 15:42:00,
2013-04-08 11:47:00,38.4,32.8,29.84,East,96,10.0,14.0,80,0.00,,---,0.00,VWS V14.01,2013-04-08 15:47:00,
2013-04-08 11:52:00,38.5,32.9,29.84,ESE,123,10.0,11.0,80,0.00,,---,0.00,VWS V14.01,2013-04-08 15:52:00,
2013-04-08 11:58:00,38.7,32.8,29.84,ENE,69,11.0,15.0,79,0.00,,---,0.00,VWS V14.01,2013-04-08 15:58:00,
2013-04-08 12:03:00,38.8,33.2,29.85,ESE,115,6.0,10.0,80,0.00,,---,0.00,VWS V14.01,2013-04-08 16:03:00,
2013-04-08 12:08:00,39.1,33.2,29.84,ENE,78,10.0,14.0,79,0.00,,---,0.00,VWS V14.01,2013-04-08 16:08:00,
2013-04-08 12:13:00,39.1,33.2,29.84,East,88,11.0,13.0,79,0.00,,---,0.00,VWS V14.01,2013-04-08 16:13:00,
2013-04-08 12:18:00,39.3,33.3,29.83,East,86,8.0,12.0,79,0.00,,---,0.00,VWS V14.01,2013-04-08 16:18:00,
2013-04-08 12:23:00,39.3,33.0,29.84,ENE,69,5.0,13.0,78,0.00,,---,0.00,VWS V14.01,2013-04-08 16:23:00,
2013-04-08 12:28:00,39.6,33.6,29.84,ENE,69,10.0,12.0,79,0.00,,---,0.00,VWS V14.01,2013-04-08 16:28:00,
2013-04-08 12:33:00,39.8,33.5,29.83,East,82,11.0,13.0,78,0.00,,---,0.00,VWS V14.01,2013-04-08 16:33:00,
2013-04-08 12:38:00,39.9,33.6,29.83,ESE,106,10.0,14.0,78,0.00,,---,0.00,VWS V14.01,2013-04-08 16:38:00,
2013-04-08 12:43:00,40.1,33.8,29.83,ESE,104,6.0,12.0,78,0.00,,---,0.00,VWS V14.01,2013-04-08 16:43:00,
2013-04-08 12:48:00,40.2,33.9,29.83,ENE,75,13.0,14.0,78,0.00,,---,0.00,VWS V14.01,2013-04-08 16:48:00,
2013-04-08 12:53:00,40.1,33.5,29.83,ESE,121,9.0,14.0,77,0.00,,---,0.00,VWS V14.01,2013-04-08 16:53:00,
2013-04-08 12:58:00,40.2,33.6,29.84,ESE,107,6.0,11.0,77,0.00,,---,0.00,VWS V14.01,2013-04-08 16:58:00,
2013-04-08 13:03:00,40.3,33.7,29.85,ENE,67,6.0,11.0,77,0.00,,---,0.00,VWS V14.01,2013-04-08 17:03:00,
2013-04-08 13:08:00,40.5,33.9,29.85,SE,125,4.0,7.0,77,0.00,,---,0.00,VWS V14.01,2013-04-08 17:08:00,
2013-04-08 13:13:00,40.6,34.0,29.85,ENE,75,6.0,8.0,77,0.00,,---,0.00,VWS V14.01,2013-04-08 17:13:00,
2013-04-08 13:18:00,40.6,34.3,29.85,East,101,6.0,6.0,78,0.00,,---,0.00,VWS V14.01,2013-04-08 17:18:00,
2013-04-08 13:23:00,40.6,34.0,29.84,ESE,113,12.0,14.0,77,0.00,,---,0.00,VWS V14.01,2013-04-08 17:23:00,
2013-04-08 13:28:00,40.6,34.3,29.84,East,86,6.0,8.0,78,0.00,,---,0.00,VWS V14.01,2013-04-08 17:28:00,
2013-04-08 13:33:00,40.4,34.4,29.84,East,83,8.0,13.0,79,0.00,,---,0.00,VWS V14.01,2013-04-08 17:33:00,
2013-04-08 13:38:00,40.2,34.5,29.84,ESE,117,6.0,13.0,80,0.00,,---,0.00,VWS V14.01,2013-04-08 17:38:00,
2013-04-08 13:43:00,39.8,34.5,29.83,ENE,77,7.0,12.0,81,0.01,,---,0.01,VWS V14.01,2013-04-08 17:43:00,
2013-04-08 13:49:00,39.5,34.8,29.83,East,94,7.0,8.0,83,0.01,,---,0.01,VWS V14.01,2013-04-08 17:49:00,
2013-04-08 13:54:00,39.4,35.0,29.83,East,80,7.0,15.0,84,0.01,,---,0.01,VWS V14.01,2013-04-08 17:54:00,
2013-04-08 13:59:00,39.3,34.9,29.82,East,81,11.0,14.0,84,0.02,,---,0.02,VWS V14.01,2013-04-08 17:59:00,
2013-04-08 14:04:00,39.2,35.1,29.83,ENE,76,9.0,12.0,85,0.02,,---,0.02,VWS V14.01,2013-04-08 18:04:00,
2013-04-08 14:09:00,39.1,35.3,29.83,ENE,78,11.0,11.0,86,0.02,,---,0.02,VWS V14.01,2013-04-08 18:09:00,
2013-04-08 14:14:00,38.8,35.3,29.82,ENE,78,8.0,11.0,87,0.03,,---,0.03,VWS V14.01,2013-04-08 18:14:00,
2013-04-08 14:19:00,38.5,35.0,29.82,ENE,75,10.0,13.0,87,0.04,,---,0.04,VWS V14.01,2013-04-08 18:19:00,
2013-04-08 14:24:00,38.2,35.0,29.82,ENE,65,9.0,12.0,88,0.04,,---,0.04,VWS V14.01,2013-04-08 18:24:00,
2013-04-08 14:29:00,38.0,34.8,29.81,ENE,59,7.0,13.0,88,0.05,,---,0.05,VWS V14.01,2013-04-08 18:29:00,
2013-04-08 14:34:00,38.0,35.0,29.81,East,87,13.0,13.0,89,0.05,,---,0.05,VWS V14.01,2013-04-08 18:34:00,
2013-04-08 14:39:00,37.9,35.0,29.80,NE,56,12.0,13.0,89,0.05,,---,0.05,VWS V14.01,2013-04-08 18:39:00,
2013-04-08 14:44:00,37.9,35.0,29.80,ENE,65,14.0,16.0,89,0.04,,---,0.05,VWS V14.01,2013-04-08 18:44:00,
2013-04-08 14:50:00,37.9,35.0,29.79,NE,51,11.0,16.0,89,0.05,,---,0.06,VWS V14.01,2013-04-08 18:50:00,
2013-04-08 14:55:00,38.0,35.0,29.79,ENE,61,11.0,15.0,89,0.05,,---,0.06,VWS V14.01,2013-04-08 18:55:00,
2013-04-08 15:00:00,38.0,35.0,29.79,ENE,63,12.0,18.0,89,0.04,,---,0.06,VWS V14.01,2013-04-08 19:00:00,
2013-04-08 15:05:00,38.0,35.0,29.79,ENE,57,13.0,14.0,89,0.04,,---,0.06,VWS V14.01,2013-04-08 19:05:00,
2013-04-08 15:10:00,38.1,35.4,29.78,NE,46,7.0,13.0,90,0.05,,---,0.07,VWS V14.01,2013-04-08 19:10:00,
2013-04-08 15:15:00,38.0,35.3,29.78,ENE,57,12.0,16.0,90,0.05,,---,0.08,VWS V14.01,2013-04-08 19:15:00,
2013-04-08 15:20:00,38.0,35.3,29.78,NE,55,10.0,17.0,90,0.05,,---,0.08,VWS V14.01,2013-04-08 19:20:00,
2013-04-08 15:25:00,38.0,35.3,29.78,ENE,64,6.0,12.0,90,0.04,,---,0.08,VWS V14.01,2013-04-08 19:25:00,
2013-04-08 15:30:00,38.0,35.3,29.78,ENE,62,10.0,11.0,90,0.04,,---,0.08,VWS V14.01,2013-04-08 19:30:00,
2013-04-08 15:35:00,38.1,35.4,29.77,NE,56,14.0,14.0,90,0.03,,---,0.08,VWS V14.01,2013-04-08 19:35:00,
2013-04-08 15:40:00,38.2,35.5,29.77,ENE,60,7.0,17.0,90,0.03,,---,0.08,VWS V14.01,2013-04-08 19:40:00,
2013-04-08 15:45:00,38.3,35.6,29.77,ENE,57,9.0,16.0,90,0.03,,---,0.08,VWS V14.01,2013-04-08 19:45:00,
2013-04-08 15:50:00,38.4,35.5,29.77,NE,49,12.0,14.0,89,0.03,,---,0.08,VWS V14.01,2013-04-08 19:50:00,
2013-04-08 15:55:00,38.4,35.5,29.77,ENE,57,10.0,12.0,89,0.02,,---,0.08,VWS V14.01,2013-04-08 19:55:00,
2013-04-08 16:00:00,38.4,35.5,29.77,NNE,32,9.0,13.0,89,0.02,,---,0.08,VWS V14.01,2013-04-08 20:00:00,
2013-04-08 16:05:00,38.4,35.5,29.77,East,80,10.0,13.0,89,0.02,,---,0.08,VWS V14.01,2013-04-08 20:05:00,
2013-04-08 16:10:00,38.3,35.3,29.77,ENE,66,13.0,13.0,89,0.02,,---,0.08,VWS V14.01,2013-04-08 20:10:00,
2013-04-08 16:15:00,38.3,35.3,29.77,NE,51,7.0,14.0,89,0.01,,---,0.08,VWS V14.01,2013-04-08 20:15:00,
2013-04-08 16:20:00,38.3,35.3,29.77,NE,55,9.0,15.0,89,0.00,,---,0.08,VWS V14.01,2013-04-08 20:20:00,
2013-04-08 16:25:00,38.2,35.2,29.77,NE,46,11.0,13.0,89,0.00,,---,0.08,VWS V14.01,2013-04-08 20:25:00,
2013-04-08 16:30:00,38.2,35.2,29.77,East,80,9.0,14.0,89,0.01,,---,0.09,VWS V14.01,2013-04-08 20:30:00,
2013-04-08 16:35:00,38.2,35.2,29.78,ENE,71,7.0,16.0,89,0.01,,---,0.09,VWS V14.01,2013-04-08 20:35:00,
2013-04-08 16:40:00,38.2,35.2,29.78,East,82,10.0,14.0,89,0.02,,---,0.10,VWS V14.01,2013-04-08 20:40:00,
2013-04-08 16:45:00,38.1,35.4,29.78,ESE,105,9.0,13.0,90,0.02,,---,0.10,VWS V14.01,2013-04-08 20:45:00,
2013-04-08 16:50:00,38.1,35.4,29.78,East,79,7.0,13.0,90,0.03,,---,0.11,VWS V14.01,2013-04-08 20:50:00,
2013-04-08 16:55:00,38.0,35.3,29.79,East,86,6.0,11.0,90,0.04,,---,0.12,VWS V14.01,2013-04-08 20:55:00,
2013-04-08 17:00:00,38.0,35.3,29.79,East,88,7.0,10.0,90,0.05,,---,0.13,VWS V14.01,2013-04-08 21:00:00,
2013-04-08 17:05:00,37.9,35.5,29.79,ENE,74,5.0,10.0,91,0.06,,---,0.14,VWS V14.01,2013-04-08 21:05:00,
2013-04-08 17:10:00,37.9,35.5,29.79,ENE,67,7.0,10.0,91,0.07,,---,0.15,VWS V14.01,2013-04-08 21:10:00,
2013-04-08 17:15:00,37.9,35.5,29.79,ENE,74,8.0,10.0,91,0.07,,---,0.15,VWS V14.01,2013-04-08 21:15:00,
2013-04-08 17:20:00,37.9,35.5,29.80,East,80,5.0,11.0,91,0.08,,---,0.16,VWS V14.01,2013-04-08 21:20:00,
2013-04-08 17:25:00,37.9,35.5,29.81,ENE,65,5.0,5.0,91,0.08,,---,0.16,VWS V14.01,2013-04-08 21:25:00,
2013-04-08 17:30:00,37.8,35.4,29.81,ENE,59,10.0,10.0,91,0.08,,---,0.17,VWS V14.01,2013-04-08 21:30:00,
2013-04-08 17:35:00,37.7,35.6,29.81,ENE,75,10.0,10.0,92,0.09,,---,0.18,VWS V14.01,2013-04-08 21:35:00,
2013-04-08 17:40:00,37.5,35.4,29.81,ENE,59,9.0,10.0,92,0.09,,---,0.19,VWS V14.01,2013-04-08 21:40:00,
2013-04-08 17:45:00,37.5,35.4,29.81,ENE,66,10.0,11.0,92,0.10,,---,0.20,VWS V14.01,2013-04-08 21:45:00,
2013-04-08 17:50:00,37.4,35.3,29.81,ENE,59,10.0,12.0,92,0.10,,---,0.21,VWS V14.01,2013-04-08 21:50:00,
2013-04-08 17:55:00,37.3,35.2,29.81,ENE,59,10.0,10.0,92,0.09,,---,0.21,VWS V14.01,2013-04-08 21:55:00,
2013-04-08 18:00:00,37.2,35.1,29.81,ENE,61,11.0,11.0,92,0.09,,---,0.22,VWS V14.01,2013-04-08 22:00:00,
2013-04-08 18:06:00,37.2,35.1,29.81,ENE,61,9.0,10.0,92,0.08,,---,0.22,VWS V14.01,2013-04-08 22:06:00,
2013-04-08 18:11:00,37.2,35.1,29.82,NE,55,9.0,12.0,92,0.08,,---,0.22,VWS V14.01,2013-04-08 22:11:00,
2013-04-08 18:16:00,37.1,35.0,29.82,NE,45,9.0,10.0,92,0.08,,---,0.23,VWS V14.01,2013-04-08 22:16:00,
2013-04-08 18:21:00,37.2,35.4,29.82,NE,53,9.0,12.0,93,0.07,,---,0.23,VWS V14.01,2013-04-08 22:21:00,
2013-04-08 18:26:00,37.1,35.0,29.82,ENE,69,9.0,11.0,92,0.07,,---,0.23,VWS V14.01,2013-04-08 22:26:00,
2013-04-08 18:31:00,37.2,35.4,29.82,NE,52,10.0,11.0,93,0.06,,---,0.23,VWS V14.01,2013-04-08 22:31:00,
2013-04-08 18:36:00,37.3,35.5,29.82,ENE,59,13.0,13.0,93,0.05,,---,0.23,VWS V14.01,2013-04-08 22:36:00,
2013-04-08 18:41:00,37.3,35.5,29.83,NE,55,5.0,8.0,93,0.04,,---,0.23,VWS V14.01,2013-04-08 22:41:00,
2013-04-08 18:46:00,37.3,35.2,29.83,NE,55,8.0,11.0,92,0.03,,---,0.23,VWS V14.01,2013-04-08 22:46:00,
2013-04-08 18:51:00,37.3,35.2,29.83,ENE,67,6.0,8.0,92,0.02,,---,0.23,VWS V14.01,2013-04-08 22:51:00,
2013-04-08 18:56:00,37.3,35.2,29.83,NE,45,6.0,11.0,92,0.02,,---,0.23,VWS V14.01,2013-04-08 22:56:00,
2013-04-08 19:01:00,36.9,34.8,29.83,NE,48,11.0,13.0,92,0.01,,---,0.23,VWS V14.01,2013-04-08 23:01:00,
2013-04-08 19:06:00,36.6,34.5,29.84,ENE,63,12.0,15.0,92,0.01,,---,0.23,VWS V14.01,2013-04-08 23:06:00,
2013-04-08 19:11:00,36.4,34.3,29.85,ENE,70,11.0,14.0,92,0.01,,---,0.23,VWS V14.01,2013-04-08 23:11:00,
2013-04-08 19:16:00,36.2,34.1,29.85,ENE,71,10.0,12.0,92,0.00,,---,0.23,VWS V14.01,2013-04-08 23:16:00,
2013-04-08 19:21:00,36.2,34.1,29.86,NE,34,5.0,7.0,92,0.00,,---,0.23,VWS V14.01,2013-04-08 23:21:00,
2013-04-08 19:27:00,36.0,33.9,29.86,NE,55,5.0,8.0,92,0.00,,---,0.23,VWS V14.01,2013-04-08 23:27:00,
2013-04-08 19:32:00,36.0,33.9,29.86,NE,46,11.0,13.0,92,0.00,,---,0.23,VWS V14.01,2013-04-08 23:32:00,
2013-04-08 19:37:00,35.9,33.8,29.86,NE,52,10.0,12.0,92,0.00,,---,0.23,VWS V14.01,2013-04-08 23:37:00,
2013-04-08 19:42:00,35.8,33.7,29.87,NE,51,7.0,9.0,92,0.00,,---,0.23,VWS V14.01,2013-04-08 23:42:00,
2013-04-08 19:47:00,35.7,33.6,29.87,NE,46,5.0,6.0,92,0.00,,---,0.23,VWS V14.01,2013-04-08 23:47:00,
2013-04-08 19:52:00,35.7,33.6,29.87,NE,51,9.0,10.0,92,0.00,,---,0.23,VWS V14.01,2013-04-08 23:52:00,
2013-04-08 19:57:00,35.6,33.5,29.87,NE,55,6.0,11.0,92,0.00,,---,0.23,VWS V14.01,2013-04-08 23:57:00,
2013-04-08 20:02:00,35.5,33.4,29.87,NE,41,9.0,11.0,92,0.00,,---,0.23,VWS V14.01,2013-04-09 00:02:00,
2013-04-08 20:07:00,35.4,33.3,29.87,ENE,73,6.0,9.0,92,0.00,,---,0.23,VWS V14.01,2013-04-09 00:07:00,
2013-04-08 20:12:00,35.3,33.2,29.87,ENE,61,6.0,10.0,92,0.00,,---,0.23,VWS V14.01,2013-04-09 00:12:00,
2013-04-08 20:17:00,35.2,33.1,29.88,ENE,61,6.0,7.0,92,0.00,,---,0.23,VWS V14.01,2013-04-09 00:17:00,
2013-04-08 20:22:00,35.2,33.1,29.89,ENE,67,5.0,7.0,92,0.00,,---,0.23,VWS V14.01,2013-04-09 00:22:00,
2013-04-08 20:27:00,35.2,33.1,29.89,ENE,61,7.0,7.0,92,0.00,,---,0.23,VWS V14.01,2013-04-09 00:27:00,
2013-04-08 20:32:00,35.2,33.1,29.89,NE,55,5.0,7.0,92,0.00,,---,0.23,VWS V14.01,2013-04-09 00:32:00,
2013-04-08 20:37:00,35.2,33.1,29.89,ENE,59,8.0,8.0,92,0.00,,---,0.23,VWS V14.01,2013-04-09 00:37:00,
2013-04-08 20:42:00,35.1,33.0,29.89,NE,55,9.0,9.0,92,0.00,,---,0.23,VWS V14.01,2013-04-09 00:42:00,
2013-04-08 20:47:00,35.0,32.9,29.89,NE,55,9.0,10.0,92,0.00,,---,0.23,VWS V14.01,2013-04-09 00:47:00,
2013-04-08 20:52:00,35.0,32.9,29.90,NE,53,6.0,6.0,92,0.00,,---,0.23,VWS V14.01,2013-04-09 00:52:00,
2013-04-08 20:57:00,35.0,32.9,29.90,ENE,58,4.0,7.0,92,0.00,,---,0.23,VWS V14.01,2013-04-09 00:57:00,
2013-04-08 21:02:00,35.0,32.9,29.91,NE,46,3.0,5.0,92,0.00,,---,0.23,VWS V14.01,2013-04-09 01:02:00,
2013-04-08 21:07:00,35.0,32.9,29.91,NE,55,2.0,3.0,92,0.00,,---,0.23,VWS V14.01,2013-04-09 01:07:00,
2013-04-08 21:12:00,35.1,33.0,29.91,NE,55,2.0,3.0,92,0.00,,---,0.23,VWS V14.01,2013-04-09 01:12:00,
2013-04-08 21:17:00,35.0,32.9,29.92,NE,55,2.0,2.0,92,0.00,,---,0.23,VWS V14.01,2013-04-09 01:17:00,
2013-04-08 21:22:00,35.1,33.0,29.92,NE,55,0.0,0.0,92,0.00,,---,0.23,VWS V14.01,2013-04-09 01:22:00,
2013-04-08 21:27:00,35.1,33.0,29.93,NE,55,0.0,0.0,92,0.00,,---,0.23,VWS V14.01,2013-04-09 01:27:00,
2013-04-08 21:32:00,35.2,33.1,29.93,NE,55,0.0,0.0,92,0.00,,---,0.23,VWS V14.01,2013-04-09 01:32:00,
2013-04-08 21:37:00,35.1,33.0,29.93,NE,55,3.0,3.0,92,0.00,,---,0.23,VWS V14.01,2013-04-09 01:37:00,
2013-04-08 21:42:00,35.1,33.0,29.93,NE,55,2.0,3.0,92,0.00,,---,0.23,VWS V14.01,2013-04-09 01:42:00,
2013-04-08 21:47:00,35.1,33.0,29.93,NE,55,3.0,4.0,92,0.00,,---,0.23,VWS V14.01,2013-04-09 01:47:00,
2013-04-08 21:52:00,35.1,33.0,29.93,NE,56,5.0,6.0,92,0.00,,---,0.23,VWS V14.01,2013-04-09 01:52:00,
2013-04-08 21:57:00,35.1,33.0,29.93,NE,55,4.0,5.0,92,0.00,,---,0.23,VWS V14.01,2013-04-09 01:57:00,
2013-04-08 22:02:00,35.1,33.0,29.93,NE,53,3.0,5.0,92,0.00,,---,0.23,VWS V14.01,2013-04-09 02:02:00,
2013-04-08 22:07:00,35.1,33.0,29.94,NE,51,2.0,5.0,92,0.00,,---,0.23,VWS V14.01,2013-04-09 02:07:00,
2013-04-08 22:12:00,35.1,33.0,29.94,NE,52,2.0,3.0,92,0.00,,---,0.23,VWS V14.01,2013-04-09 02:12:00,
2013-04-08 22:17:00,35.1,33.0,29.94,ENE,67,3.0,4.0,92,0.00,,---,0.23,VWS V14.01,2013-04-09 02:17:00,
2013-04-08 22:22:00,35.1,33.0,29.95,ENE,70,0.0,3.0,92,0.00,,---,0.23,VWS V14.01,2013-04-09 02:22:00,
2013-04-08 22:28:00,35.1,33.0,29.95,ENE,72,2.0,3.0,92,0.00,,---,0.23,VWS V14.01,2013-04-09 02:28:00,
2013-04-08 22:33:00,35.1,33.0,29.95,ENE,73,1.0,2.0,92,0.00,,---,0.23,VWS V14.01,2013-04-09 02:33:00,
2013-04-08 22:38:00,35.1,33.0,29.96,ENE,73,0.0,0.0,92,0.00,,---,0.23,VWS V14.01,2013-04-09 02:38:00,
2013-04-08 22:43:00,35.1,33.0,29.96,East,92,3.0,4.0,92,0.00,,---,0.23,VWS V14.01,2013-04-09 02:43:00,
2013-04-08 22:48:00,35.2,33.1,29.96,ESE,104,4.0,5.0,92,0.00,,---,0.23,VWS V14.01,2013-04-09 02:48:00,
2013-04-08 22:53:00,35.2,33.1,29.96,ESE,105,2.0,4.0,92,0.00,,---,0.23,VWS V14.01,2013-04-09 02:53:00,
2013-04-08 22:58:00,35.2,33.1,29.96,ESE,115,4.0,5.0,92,0.00,,---,0.23,VWS V14.01,2013-04-09 02:58:00,
2013-04-08 23:03:00,35.2,33.1,29.96,ESE,109,3.0,5.0,92,0.00,,---,0.23,VWS V14.01,2013-04-09 03:03:00,
2013-04-08 23:08:00,35.2,33.1,29.96,ESE,102,1.0,4.0,92,0.00,,---,0.23,VWS V14.01,2013-04-09 03:08:00,
2013-04-08 23:13:00,35.3,33.2,29.97,ESE,102,1.0,4.0,92,0.00,,---,0.23,VWS V14.01,2013-04-09 03:13:00,
2013-04-08 23:18:00,35.3,33.2,29.97,East,92,0.0,3.0,92,0.00,,---,0.23,VWS V14.01,2013-04-09 03:18:00,
2013-04-08 23:23:00,35.3,33.2,29.97,East,96,2.0,2.0,92,0.00,,---,0.23,VWS V14.01,2013-04-09 03:23:00,
2013-04-08 23:28:00,35.3,33.2,29.98,East,97,0.0,0.0,92,0.00,,---,0.23,VWS V14.01,2013-04-09 03:28:00,
2013-04-08 23:33:00,35.4,33.3,29.98,East,96,0.0,0.0,92,0.00,,---,0.23,VWS V14.01,2013-04-09 03:33:00,
2013-04-08 23:38:00,35.4,33.3,29.98,East,97,0.0,0.0,92,0.00,,---,0.23,VWS V14.01,2013-04-09 03:38:00,
2013-04-08 23:43:00,35.3,33.2,29.98,East,94,1.0,3.0,92,0.00,,---,0.23,VWS V14.01,2013-04-09 03:43:00,
2013-04-08 23:48:00,35.4,33.6,29.98,East,95,0.0,3.0,93,0.00,,---,0.23,VWS V14.01,2013-04-09 03:48:00,
2013-04-08 23:53:00,35.4,33.6,29.98,ENE,64,2.0,3.0,93,0.00,,---,0.23,VWS V14.01,2013-04-09 03:53:00,
2013-04-08 23:58:00,35.4,33.3,29.98,ENE,64,0.0,0.0,92,0.00,,---,0.23,VWS V14.01,2013-04-09 03:58:00,